Cruise inventory

RV Cirolana CIR9B/93

Cruise summary report

Cruise Info. 
Ship name (ship code)RV Cirolana (74CZ)
Cruise identifierCIR9B/93
Cruise period1993-09-30 — 1993-10-11
StatusCompleted
Port of departureLowestoft, United Kingdom
Port of returnLowestoft, United Kingdom
Objectives1. To identify and quantify the fate of river-borne nutrients entering the Wash and Humber estuary, examining nutrient distriubtions from the river inputs through to the North Sea. (AE0504A0).
2. To examine sediment biogeochemical processes that control the behaviour of nutrients in the North Sea (AE0504A0).
3. To take samples over a grid in the North Sea to improve knowledge of the seasonal signal in nutrient concentration, particuarly phosphate (AE0503A0).
Additional aims:
4. To recover 2 moorings from the Wash, one containing an in situ nitrate analyser. (AE0504A0).
5. To collect air and water samples for low molecular weight hydrocarbon studies. (W Broadgate, P S Liss, S Penkett, University of East Anglia).
Chief scientistStephen James Malcolm (Ministry of Agriculture, Fisheries and Food Lowestoft Fisheries Laboratory)
ProjectJONUS
Coordinating bodyMAFF
Cruise reportRV Cirolana CIR9B/93 cruise report ci9b_93.pdf — access key 'C' (0.13 MB) 
Ocean/sea areas 
GeneralNorth Sea
SpecificWash, Humber and southern North Sea
Track chartsRV Cirolana CIR9B/93 cruise track — trk3975.html
Measurements 
Physical oceanography 
Water bottle stationsQuantity: number of stations = 141
CTD stationsQuantity: number of stations = 63
Chemical oceanography 
PhosphateQuantity: number of samples = 204
NitrateQuantity: number of samples = 204
NitriteQuantity: number of samples = 204
AmmoniaQuantity: number of samples = 204
SilicateQuantity: number of samples = 204
Contamination 
Suspended matterQuantity: number of samples = 204
Other contaminant measurementsQuantity: number of samples = 15
Description: air contamination samples
Geology and geophysics 
GrabQuantity: number of samples = 7
Data held at BODC 
Series/Profiles 
57  CTD/STD cast
Vertical spatial coordinates
Salinity of the water column
Temperature of the water column
Vertical spatial coordinates
Salinity of the water column
Temperature of the water column

BODC idDate/TimeLocationDoc.
5511341993-10-01 09:44 52° 55' 6" N  0° 15' 26" E  View metadata report for BODC series reference number 551134
5511461993-10-01 15:15 53° 0' 49" N  0° 27' 49" E  View metadata report for BODC series reference number 551146
5511581993-10-01 15:50 53° 1' 25" N  0° 26' 58" E  View metadata report for BODC series reference number 551158
5511711993-10-01 16:53 53° 2' 17" N  0° 25' 50" E  View metadata report for BODC series reference number 551171
5511831993-10-01 17:32 53° 2' 53" N  0° 24' 49" E  View metadata report for BODC series reference number 551183
5511951993-10-02 15:01 52° 59' 25" N  0° 21' 50" E  View metadata report for BODC series reference number 551195
5512021993-10-02 15:48 52° 58' 9" N  0° 23' 58" E  View metadata report for BODC series reference number 551202
5512141993-10-02 16:38 53° 0' 9" N  0° 25' 6" E  View metadata report for BODC series reference number 551214
5512261993-10-02 17:07 53° 0' 43" N  0° 24' 26" E  View metadata report for BODC series reference number 551226
5512381993-10-03 07:41 53° 21' 22" N  0° 37' 59" E  View metadata report for BODC series reference number 551238
5512511993-10-03 08:37 53° 19' 15" N  0° 28' 32" E  View metadata report for BODC series reference number 551251
5512631993-10-03 09:22 53° 20' 40" N  0° 22' 26" E  View metadata report for BODC series reference number 551263
5512751993-10-03 10:09 53° 26' 41" N  0° 26' 24" E  View metadata report for BODC series reference number 551275
5512871993-10-03 10:52 53° 32' 54" N  0° 30' 32" E  View metadata report for BODC series reference number 551287
5512991993-10-03 11:53 53° 32' 38" N  0° 21' 28" E  View metadata report for BODC series reference number 551299
5513061993-10-03 12:42 53° 31' 59" N  0° 14' 3" E  View metadata report for BODC series reference number 551306
5513181993-10-03 13:26 53° 35' 4" N  0° 19' 11" E  View metadata report for BODC series reference number 551318
5513311993-10-03 14:17 53° 38' 44" N  0° 26' 39" E  View metadata report for BODC series reference number 551331
5513431993-10-03 15:26 53° 41' 49" N  0° 11' 30" E  View metadata report for BODC series reference number 551343
5513551993-10-04 12:52 53° 32' 59" N  0° 5' 33" E  View metadata report for BODC series reference number 551355
5513671993-10-04 13:30 53° 32' 59" N  0° 5' 33" E  View metadata report for BODC series reference number 551367
5513791993-10-04 14:31 53° 32' 59" N  0° 5' 33" E  View metadata report for BODC series reference number 551379
5513801993-10-04 15:30 53° 32' 59" N  0° 5' 33" E  View metadata report for BODC series reference number 551380
5513921993-10-04 16:29 53° 32' 59" N  0° 5' 33" E  View metadata report for BODC series reference number 551392
5514111993-10-04 17:28 53° 32' 59" N  0° 5' 33" E  View metadata report for BODC series reference number 551411
5514231993-10-04 18:10 53° 32' 59" N  0° 5' 33" E  View metadata report for BODC series reference number 551423
5514351993-10-04 19:29 53° 32' 59" N  0° 5' 33" E  View metadata report for BODC series reference number 551435
5514471993-10-05 07:30 53° 32' 59" N  0° 5' 33" E  View metadata report for BODC series reference number 551447
5514591993-10-05 08:29 53° 32' 59" N  0° 5' 33" E  View metadata report for BODC series reference number 551459
5514601993-10-05 09:29 53° 32' 59" N  0° 5' 33" E  View metadata report for BODC series reference number 551460
5514721993-10-05 10:29 53° 32' 59" N  0° 5' 33" E  View metadata report for BODC series reference number 551472
5514841993-10-05 11:30 53° 32' 59" N  0° 5' 33" E  View metadata report for BODC series reference number 551484
5514961993-10-05 12:30 53° 32' 59" N  0° 5' 33" E  View metadata report for BODC series reference number 551496
5515031993-10-05 13:30 53° 32' 59" N  0° 5' 33" E  View metadata report for BODC series reference number 551503
5515151993-10-05 14:30 53° 32' 59" N  0° 5' 33" E  View metadata report for BODC series reference number 551515
5515271993-10-06 18:46 52° 55' 7" N  1° 30' 28" E  View metadata report for BODC series reference number 551527
5515391993-10-07 06:08 53° 31' 23" N  3° 11' 25" E  View metadata report for BODC series reference number 551539
5515401993-10-07 14:53 53° 0' 18" N  4° 29' 3" E  View metadata report for BODC series reference number 551540
5515521993-10-07 19:13 52° 59' 43" N  3° 48' 20" E  View metadata report for BODC series reference number 551552
5515641993-10-07 22:44 53° 0' 0" N  3° 8' 2" E  View metadata report for BODC series reference number 551564
5515761993-10-08 07:31 52° 44' 52" N  2° 34' 59" E  View metadata report for BODC series reference number 551576
5515881993-10-08 08:56 52° 50' 3" N  2° 21' 2" E  View metadata report for BODC series reference number 551588
5516071993-10-08 11:44 52° 43' 52" N  1° 49' 7" E  View metadata report for BODC series reference number 551607
5516191993-10-08 22:26 52° 39' 58" N  4° 25' 54" E  View metadata report for BODC series reference number 551619
5516201993-10-09 01:01 52° 20' 48" N  4° 15' 55" E  View metadata report for BODC series reference number 551620
5516321993-10-09 20:56 51° 56' 3" N  3° 45' 0" E  View metadata report for BODC series reference number 551632
5516441993-10-09 23:48 51° 42' 1" N  3° 20' 2" E  View metadata report for BODC series reference number 551644
5516561993-10-10 01:29 51° 37' 3" N  3° 5' 4" E  View metadata report for BODC series reference number 551656
5516681993-10-10 02:48 51° 35' 31" N  2° 47' 59" E  View metadata report for BODC series reference number 551668
5516811993-10-10 06:17 51° 31' 2" N  1° 54' 2" E  View metadata report for BODC series reference number 551681
5516931993-10-10 07:32 51° 29' 59" N  1° 38' 1" E  View metadata report for BODC series reference number 551693
5517001993-10-10 08:45 51° 30' 58" N  1° 21' 4" E  View metadata report for BODC series reference number 551700
5517121993-10-10 10:07 51° 31' 0" N  1° 7' 9" E  View metadata report for BODC series reference number 551712
5517241993-10-10 11:34 51° 38' 55" N  1° 22' 58" E  View metadata report for BODC series reference number 551724
5517361993-10-10 14:08 51° 53' 1" N  2° 0' 1" E  View metadata report for BODC series reference number 551736
5517481993-10-10 16:25 51° 59' 57" N  2° 20' 4" E  View metadata report for BODC series reference number 551748
5517611993-10-10 19:29 52° 21' 56" N  2° 0' 2" E  View metadata report for BODC series reference number 551761